Time;durP1;ratioP1;P1;durP2;ratioP2;P2;SDS_P1;SDS_P2;PMS_P1;PMS_P2;Temp;Humidity;BMP_temperature;BMP_pressure;BME280_temperature;BME280_humidity;BME280_pressure;Samples;Min_cycle;Max_cycle;Signal;HPM_P1;HPM_P2
2022/08/14 00:00:54;;;;;;;10.88;5.75;;;;;;;20.19;67.77;100041.66;5053363;28;21648;-77
2022/08/14 00:03:30;;;;;;;10.38;6.15;;;;;;;20.00;68.05;100035.38;5064117;28;20139;-77
2022/08/14 00:05:58;;;;;;;10.85;6.13;;;;;;;19.76;68.96;100027.06;5069152;28;20097;-77
2022/08/14 00:08:24;;;;;;;9.43;5.70;;;;;;;19.51;69.86;100031.31;5085791;28;20056;-77
2022/08/14 00:10:50;;;;;;;9.60;6.00;;;;;;;19.31;70.67;100032.25;5086228;28;20028;-77
2022/08/14 00:13:18;;;;;;;9.43;6.30;;;;;;;19.20;71.18;100030.25;5064195;28;20092;-77
2022/08/14 00:15:46;;;;;;;16.13;6.07;;;;;;;19.13;71.63;100022.22;5031551;28;20033;-79
2022/08/14 00:18:14;;;;;;;9.80;6.03;;;;;;;19.14;71.79;100031.91;5084911;28;20024;-79
2022/08/14 00:20:42;;;;;;;16.67;7.50;;;;;;;19.19;71.61;100021.38;5039448;28;20430;-79
2022/08/14 00:23:09;;;;;;;10.55;6.18;;;;;;;19.25;71.34;100022.41;5077717;28;20024;-78
2022/08/14 00:25:35;;;;;;;10.35;6.20;;;;;;;19.30;71.05;100021.75;5049724;28;20041;-78
2022/08/14 00:28:03;;;;;;;15.52;6.82;;;;;;;19.36;70.80;100018.22;5060275;28;20099;-79
2022/08/14 00:30:29;;;;;;;11.93;6.80;;;;;;;19.41;70.75;100009.53;5072511;28;20461;-79
2022/08/14 00:32:55;;;;;;;12.45;6.38;;;;;;;19.45;70.43;100005.38;5041157;28;20077;-78
2022/08/14 00:35:21;;;;;;;8.27;6.50;;;;;;;19.44;70.31;100012.63;5071007;28;20052;-80
2022/08/14 00:37:47;;;;;;;19.52;7.25;;;;;;;19.36;70.42;100004.00;5062933;28;20032;-79
2022/08/14 00:40:15;;;;;;;12.48;6.90;;;;;;;19.33;70.57;100010.59;5074828;28;20664;-80
2022/08/14 00:42:42;;;;;;;9.90;7.13;;;;;;;19.27;70.78;100003.44;5057756;28;20027;-79
2022/08/14 00:45:11;;;;;;;10.30;6.70;;;;;;;19.20;70.60;100009.63;5037518;28;20032;-80
2022/08/14 00:47:39;;;;;;;13.50;7.32;;;;;;;19.15;70.72;100006.75;5050831;28;20052;-79
2022/08/14 00:50:07;;;;;;;8.10;6.40;;;;;;;19.16;70.83;100003.03;5054953;28;20025;-80
2022/08/14 00:52:33;;;;;;;9.60;6.22;;;;;;;19.21;70.77;100005.91;5052035;28;20103;-80
2022/08/14 00:54:59;;;;;;;9.85;6.90;;;;;;;19.33;70.33;99994.53;5068695;28;20054;-78
2022/08/14 00:57:33;;;;;;;10.93;6.18;;;;;;;19.40;70.13;99998.00;5086742;28;20031;-79
2022/08/14 00:59:59;;;;;;;7.40;5.65;;;;;;;19.51;69.71;99998.38;5087953;28;20039;-79
2022/08/14 01:02:26;;;;;;;9.65;6.20;;;;;;;19.59;69.28;99995.41;5071918;28;20114;-79
2022/08/14 01:04:56;;;;;;;7.63;5.90;;;;;;;19.61;69.21;99993.34;5072502;28;20035;-79
2022/08/14 01:07:24;;;;;;;9.23;7.07;;;;;;;19.60;69.07;99997.06;5065893;28;20507;-79
2022/08/14 01:09:53;;;;;;;11.57;6.57;;;;;;;19.57;69.07;99989.47;5055407;28;20024;-78
2022/08/14 01:12:20;;;;;;;10.90;6.88;;;;;;;19.45;69.14;99982.09;5086247;28;20024;-79
2022/08/14 01:14:46;;;;;;;16.80;6.03;;;;;;;19.34;69.53;99982.78;5052791;28;20114;-78
2022/08/14 01:17:12;;;;;;;11.13;6.38;;;;;;;19.27;69.57;99969.41;5050530;28;20091;-80
2022/08/14 01:22:22;;;;;;;6.07;5.43;;;;;;;19.19;69.57;99969.66;5040070;28;20040;-79
2022/08/14 01:24:48;;;;;;;8.10;6.43;;;;;;;19.23;69.38;99968.19;5047651;28;20036;-81
2022/08/14 01:27:18;;;;;;;8.07;5.75;;;;;;;19.26;69.09;99962.41;5064499;28;20031;-80
2022/08/14 01:29:50;;;;;;;7.93;5.35;;;;;;;19.28;69.07;99967.56;5043577;28;20055;-79
2022/08/14 01:32:17;;;;;;;8.80;6.82;;;;;;;19.26;69.03;99961.56;5050170;28;20040;-78
2022/08/14 01:34:53;;;;;;;9.70;6.60;;;;;;;19.26;68.95;99958.91;5051346;28;20342;-80
2022/08/14 01:37:23;;;;;;;14.82;7.38;;;;;;;19.23;69.04;99956.66;5086690;28;20073;-79
2022/08/14 01:39:53;;;;;;;8.88;6.65;;;;;;;19.23;69.14;99959.31;5064994;28;20050;-79
2022/08/14 01:42:19;;;;;;;10.13;6.53;;;;;;;19.21;69.07;99956.84;5067876;28;20133;-79
2022/08/14 01:44:54;;;;;;;15.75;7.43;;;;;;;19.16;69.37;99952.16;5039674;28;20035;-79
2022/08/14 01:47:19;;;;;;;10.27;6.93;;;;;;;19.07;69.42;99945.34;5034906;28;20034;-80
2022/08/14 01:49:45;;;;;;;11.77;7.00;;;;;;;18.98;69.57;99950.16;5033013;28;20457;-79
2022/08/14 01:52:11;;;;;;;6.80;6.10;;;;;;;18.94;69.61;99949.75;5066646;28;20032;-79
2022/08/14 01:54:38;;;;;;;8.98;6.82;;;;;;;18.95;69.46;99946.03;5059046;28;20070;-78
2022/08/14 01:57:10;;;;;;;10.32;6.63;;;;;;;18.92;69.46;99942.97;5081885;28;20028;-80
2022/08/14 01:59:38;;;;;;;10.45;7.10;;;;;;;18.88;69.74;99941.72;5068534;28;20111;-78
2022/08/14 02:02:11;;;;;;;9.23;6.63;;;;;;;18.75;70.02;99932.72;5065720;28;20085;-79
2022/08/14 02:04:38;;;;;;;8.50;5.40;;;;;;;18.62;70.23;99938.94;5067454;28;20054;-78
2022/08/14 02:07:05;;;;;;;9.10;6.20;;;;;;;18.47;70.72;99934.63;5039930;28;20040;-78
2022/08/14 02:09:34;;;;;;;10.77;7.28;;;;;;;18.37;71.22;99928.91;5067641;28;20024;-79
2022/08/14 02:12:03;;;;;;;9.25;6.93;;;;;;;18.29;71.59;99926.44;5063665;28;20054;-79
2022/08/14 02:14:30;;;;;;;7.63;5.78;;;;;;;18.22;71.86;99919.25;5066606;28;20039;-80
2022/08/14 02:16:56;;;;;;;13.02;6.90;;;;;;;18.23;71.83;99930.78;5067022;28;20115;-78
2022/08/14 02:19:26;;;;;;;8.43;6.70;;;;;;;18.24;72.13;99921.72;5053907;28;20032;-78
2022/08/14 02:21:55;;;;;;;14.38;6.95;;;;;;;18.29;71.98;99921.94;5059882;28;20470;-79
2022/08/14 02:24:23;;;;;;;15.10;5.93;;;;;;;18.34;71.90;99919.47;5060956;28;20033;-79
2022/08/14 02:26:50;;;;;;;7.60;6.18;;;;;;;18.42;71.72;99906.88;5038171;28;20028;-78
2022/08/14 02:29:24;;;;;;;8.20;6.15;;;;;;;18.51;71.23;99912.81;5065626;28;20040;-78
2022/08/14 02:31:52;;;;;;;11.95;7.03;;;;;;;18.53;71.19;99910.75;5055750;28;20107;-78
2022/08/14 02:34:20;;;;;;;8.25;6.70;;;;;;;18.58;70.95;99911.78;5058854;28;20024;-79
2022/08/14 02:36:50;;;;;;;10.00;6.65;;;;;;;18.58;70.82;99911.78;5058923;28;20029;-79
2022/08/14 02:39:16;;;;;;;10.60;6.43;;;;;;;18.56;71.05;99905.81;5066729;28;20039;-79
2022/08/14 02:41:42;;;;;;;11.23;6.43;;;;;;;18.59;70.73;99904.56;5069443;28;20108;-79
2022/08/14 02:44:10;;;;;;;9.30;7.10;;;;;;;18.57;70.67;99912.81;5052678;28;20025;-79
2022/08/14 02:46:43;;;;;;;10.48;6.75;;;;;;;18.56;70.37;99907.66;5087525;28;20093;-78
2022/08/14 02:49:10;;;;;;;8.70;6.97;;;;;;;18.54;70.68;99907.06;5064835;28;20063;-78
2022/08/14 02:51:37;;;;;;;9.18;6.78;;;;;;;18.49;70.54;99906.88;5069659;28;20469;-79
2022/08/14 02:54:08;;;;;;;7.07;6.30;;;;;;;18.46;70.69;99906.25;5062775;28;20081;-79
2022/08/14 02:56:37;;;;;;;9.73;7.00;;;;;;;18.45;70.28;99893.91;5047074;28;20043;-78
2022/08/14 02:59:05;;;;;;;13.15;6.35;;;;;;;18.42;70.40;99898.84;5067689;28;20060;-79
2022/08/14 03:01:32;;;;;;;8.10;7.28;;;;;;;18.36;70.13;99889.81;5052231;28;20043;-79
2022/08/14 03:03:58;;;;;;;8.65;7.32;;;;;;;18.26;70.52;99884.06;5088566;28;20038;-78
2022/08/14 03:06:25;;;;;;;12.13;6.65;;;;;;;18.14;71.06;99884.69;5052091;28;20059;-78
2022/08/14 03:08:53;;;;;;;9.13;6.80;;;;;;;18.06;71.25;99891.06;5039639;28;20112;-77
2022/08/14 03:11:20;;;;;;;13.02;7.00;;;;;;;18.05;71.30;99880.56;5068547;28;20114;-78
2022/08/14 03:13:50;;;;;;;11.65;6.55;;;;;;;18.05;71.45;99886.75;5073291;28;20032;-78
2022/08/14 03:16:22;;;;;;;13.40;7.72;;;;;;;18.03;71.39;99878.13;5043372;28;20041;-78
2022/08/14 03:18:52;;;;;;;10.63;7.45;;;;;;;18.02;71.82;99881.81;5049432;28;20028;-78
2022/08/14 03:21:23;;;;;;;10.75;7.97;;;;;;;18.03;71.80;99880.78;5075018;28;20046;-80
2022/08/14 03:24:01;;;;;;;10.07;6.47;;;;;;;18.04;71.98;99871.75;5088262;28;20032;-78
2022/08/14 03:26:27;;;;;;;9.85;7.32;;;;;;;18.05;72.09;99869.88;5054833;28;20028;-79
2022/08/14 03:28:53;;;;;;;10.00;6.90;;;;;;;18.05;71.86;99869.88;5068804;28;20375;-79
2022/08/14 03:31:22;;;;;;;8.35;6.90;;;;;;;17.94;71.72;99866.81;5049781;28;20024;-79
2022/08/14 03:33:49;;;;;;;11.63;7.65;;;;;;;17.76;71.65;99867.44;5072027;28;20036;-78
2022/08/14 03:36:18;;;;;;;11.35;7.60;;;;;;;17.68;72.19;99864.97;5073570;28;20032;-78
2022/08/14 03:38:47;;;;;;;10.88;6.95;;;;;;;17.53;72.62;99857.16;5053526;28;20039;-78
2022/08/14 03:41:18;;;;;;;10.48;7.13;;;;;;;17.53;72.84;99855.34;5066895;28;20032;-78
2022/08/14 03:43:53;;;;;;;9.68;7.30;;;;;;;17.56;72.65;99864.78;5065124;28;20044;-77
2022/08/14 03:46:19;;;;;;;8.15;6.63;;;;;;;17.56;72.52;99864.78;5044873;28;20064;-78
2022/08/14 03:48:44;;;;;;;7.18;6.05;;;;;;;17.59;72.38;99854.50;5053287;28;20151;-79
2022/08/14 03:51:12;;;;;;;8.60;6.85;;;;;;;17.61;72.26;99860.44;5091496;28;20032;-78
2022/08/14 03:53:44;;;;;;;9.02;7.22;;;;;;;17.60;72.10;99852.63;5060643;28;20031;-78
2022/08/14 03:56:16;;;;;;;8.77;7.05;;;;;;;17.57;72.00;99851.22;5074207;28;20119;-78
2022/08/14 03:58:48;;;;;;;8.07;7.18;;;;;;;17.57;72.11;99847.72;5053928;28;20507;-79
2022/08/14 04:01:18;;;;;;;8.40;6.85;;;;;;;17.57;71.80;99851.22;5069936;28;20389;-78
2022/08/14 04:03:45;;;;;;;13.35;7.78;;;;;;;17.61;71.73;99836.41;5088419;28;20036;-78
2022/08/14 04:06:11;;;;;;;9.77;7.65;;;;;;;17.60;71.90;99844.63;5052170;28;20036;-79
2022/08/14 04:08:38;;;;;;;12.32;8.05;;;;;;;17.59;72.02;99833.13;5071908;28;20105;-77
2022/08/14 04:11:04;;;;;;;12.15;8.75;;;;;;;17.59;72.11;99833.13;5065808;28;20221;-78
2022/08/14 04:13:33;;;;;;;11.15;8.13;;;;;;;17.63;72.25;99836.19;5051057;28;20032;-79
2022/08/14 04:15:59;;;;;;;8.30;7.40;;;;;;;17.65;72.58;99831.47;5062953;28;20058;-78
2022/08/14 04:18:25;;;;;;;8.98;7.57;;;;;;;17.63;72.39;99828.19;5034296;28;20040;-80
2022/08/14 04:20:50;;;;;;;10.43;7.18;;;;;;;17.54;72.56;99830.25;5051292;28;20031;-80
2022/08/14 04:23:16;;;;;;;9.55;7.03;;;;;;;17.51;72.62;99827.16;5067923;28;20086;-79
2022/08/14 04:25:42;;;;;;;10.15;6.97;;;;;;;17.46;72.57;99823.25;5045572;28;20042;-79
2022/08/14 04:28:10;;;;;;;7.82;7.00;;;;;;;17.41;72.49;99824.88;5069959;28;20031;-78
2022/08/14 04:30:39;;;;;;;7.85;7.10;;;;;;;17.23;72.50;99824.47;5056329;28;20036;-78
2022/08/14 04:33:07;;;;;;;8.13;6.60;;;;;;;17.07;72.71;99824.84;5059208;28;20031;-78
2022/08/14 04:35:34;;;;;;;9.48;6.40;;;;;;;16.84;73.14;99820.69;5032233;28;20434;-79
2022/08/14 04:43:37;;;;;;;8.57;7.28;;;;;;;16.57;74.33;99833.94;5070220;28;20055;-78
2022/08/14 04:46:04;;;;;;;9.00;7.20;;;;;;;16.59;74.18;99830.06;5065313;28;20028;-78
2022/08/14 04:48:30;;;;;;;9.73;7.82;;;;;;;16.66;74.42;99837.25;5072724;28;20052;-78
2022/08/14 04:50:56;;;;;;;9.88;6.88;;;;;;;16.75;74.21;99833.38;5056411;28;20040;-78
2022/08/14 04:53:24;;;;;;;10.65;6.75;;;;;;;16.84;73.79;99832.19;5073460;28;20092;-79
2022/08/14 04:55:51;;;;;;;7.88;7.00;;;;;;;16.93;73.55;99826.66;5089226;28;20496;-78
2022/08/14 04:58:28;;;;;;;11.80;6.82;;;;;;;16.96;73.26;99826.25;5073707;28;20036;-79
2022/08/14 05:00:56;;;;;;;11.57;8.13;;;;;;;17.01;73.39;99828.31;5083714;28;20032;-78
2022/08/14 05:03:25;;;;;;;16.67;6.85;;;;;;;17.05;73.14;99827.72;5069681;28;20036;-79
2022/08/14 05:05:56;;;;;;;13.00;7.35;;;;;;;17.12;72.90;99822.41;5087413;28;20101;-77
2022/08/14 05:08:22;;;;;;;11.88;8.27;;;;;;;17.18;73.05;99826.13;5059554;28;20731;-78
2022/08/14 05:10:50;;;;;;;10.85;8.77;;;;;;;17.25;73.40;99820.78;5069061;28;20504;-78
2022/08/14 05:13:17;;;;;;;9.35;8.10;;;;;;;17.31;73.57;99818.09;5066573;28;20111;-78
2022/08/14 05:15:45;;;;;;;12.25;8.52;;;;;;;17.30;73.68;99818.31;5085929;28;20039;-78
2022/08/14 05:18:13;;;;;;;7.88;6.88;;;;;;;17.28;73.55;99809.69;5069514;28;20035;-78
2022/08/14 05:20:45;;;;;;;7.90;6.53;;;;;;;17.23;73.57;99821.00;5067726;28;20043;-79
2022/08/14 05:23:13;;;;;;;9.30;6.82;;;;;;;17.20;73.12;99818.75;5089435;28;20032;-78
2022/08/14 05:25:39;;;;;;;9.27;7.30;;;;;;;17.13;73.60;99829.41;5089576;28;20035;-78
2022/08/14 05:28:08;;;;;;;9.70;7.50;;;;;;;17.07;73.49;99820.31;5024427;28;20505;-78
2022/08/14 05:30:34;;;;;;;9.70;8.68;;;;;;;17.04;73.73;99822.59;5058865;28;20043;-78
2022/08/14 05:33:00;;;;;;;9.70;7.78;;;;;;;17.04;73.71;99827.91;5046828;28;20085;-79
2022/08/14 05:35:26;;;;;;;9.70;7.35;;;;;;;17.04;74.01;99818.03;5054992;28;20031;-79
2022/08/14 05:37:52;;;;;;;12.02;7.90;;;;;;;17.08;73.92;99818.50;5051645;28;20032;-78
2022/08/14 05:40:18;;;;;;;12.73;7.78;;;;;;;17.08;73.82;99822.00;5081931;28;20032;-78
2022/08/14 05:42:44;;;;;;;14.60;9.23;;;;;;;17.11;73.92;99816.25;5069228;28;20059;-78
2022/08/14 05:45:12;;;;;;;9.80;8.52;;;;;;;17.11;73.96;99826.09;5063777;28;20110;-79
2022/08/14 05:47:42;;;;;;;12.50;7.80;;;;;;;17.13;74.20;99826.72;5061278;28;20062;-77
2022/08/14 05:50:11;;;;;;;7.85;7.03;;;;;;;17.18;74.09;99826.94;5035308;28;20136;-79
2022/08/14 05:52:36;;;;;;;19.30;7.50;;;;;;;17.25;73.97;99826.13;5047680;28;20028;-78
2022/08/14 05:55:04;;;;;;;10.38;6.90;;;;;;;17.26;73.67;99828.59;5065182;28;20505;-78
2022/08/14 05:57:29;;;;;;;13.07;6.93;;;;;;;17.27;73.54;99827.56;5061478;28;20029;-79
2022/08/14 05:59:55;;;;;;;11.48;7.75;;;;;;;17.29;73.38;99825.53;5043152;28;20048;-78
2022/08/14 06:02:21;;;;;;;18.50;7.88;;;;;;;17.32;73.24;99834.97;5042023;28;20036;-78
2022/08/14 06:04:47;;;;;;;8.38;7.07;;;;;;;17.34;73.38;99830.25;5023210;28;20109;-78
2022/08/14 06:07:13;;;;;;;9.00;7.50;;;;;;;17.36;73.49;99836.19;5049422;28;20033;-78
2022/08/14 06:09:39;;;;;;;17.63;9.70;;;;;;;17.27;73.55;99827.56;5032642;28;20040;-78
2022/08/14 06:12:06;;;;;;;11.23;6.93;;;;;;;17.11;74.35;99828.78;5035996;28;20025;-77
2022/08/14 06:14:32;;;;;;;9.07;8.18;;;;;;;16.99;74.72;99823.19;5051709;28;20028;-78
2022/08/14 06:16:58;;;;;;;10.38;7.20;;;;;;;16.96;75.31;99831.59;5038776;28;20047;-78
2022/08/14 06:19:24;;;;;;;10.55;6.93;;;;;;;16.98;75.46;99825.03;5048806;28;20115;-78
2022/08/14 06:21:50;;;;;;;8.95;7.47;;;;;;;17.05;75.45;99824.22;5036455;28;20033;-78
2022/08/14 06:24:16;;;;;;;8.65;7.22;;;;;;;17.08;75.53;99823.84;5035950;28;20037;-79
2022/08/14 06:26:42;;;;;;;9.13;7.15;;;;;;;17.17;75.71;99821.81;5038000;28;20044;-78
2022/08/14 06:29:09;;;;;;;11.10;8.93;;;;;;;17.25;75.62;99823.47;5047593;28;20048;-78
2022/08/14 06:31:34;;;;;;;12.50;11.00;;;;;;;17.28;75.84;99818.50;5022963;28;20056;-79
2022/08/14 06:34:00;;;;;;;11.75;10.55;;;;;;;17.30;76.51;99811.13;5041636;28;20425;-80
2022/08/14 06:36:26;;;;;;;12.10;10.88;;;;;;;17.34;76.77;99808.88;5073297;28;20439;-78
2022/08/14 06:38:53;;;;;;;13.02;10.73;;;;;;;17.39;76.91;99809.06;5054701;28;20471;-78
2022/08/14 06:41:19;;;;;;;17.13;10.13;;;;;;;17.42;76.99;99805.19;5044022;28;20032;-80
2022/08/14 06:43:44;;;;;;;16.92;10.30;;;;;;;17.34;77.12;99806.22;5053914;28;20094;-79
2022/08/14 06:46:10;;;;;;;12.30;10.82;;;;;;;17.28;78.09;99801.69;5039699;28;20044;-78
2022/08/14 06:48:36;;;;;;;15.35;10.88;;;;;;;17.25;78.63;99807.44;5033005;28;20043;-78
2022/08/14 06:51:02;;;;;;;14.32;11.07;;;;;;;17.27;78.91;99805.38;5053093;28;20040;-78
2022/08/14 06:53:27;;;;;;;11.85;9.68;;;;;;;17.33;78.82;99805.38;5039731;28;20120;-78
2022/08/14 06:55:54;;;;;;;14.40;9.75;;;;;;;17.43;78.92;99802.31;5051790;28;20048;-78
2022/08/14 06:58:20;;;;;;;10.60;9.52;;;;;;;17.55;78.77;99797.16;5028873;28;20048;-79
2022/08/14 07:06:16;;;;;;;13.00;10.38;;;;;;;17.85;77.53;99798.56;5056228;28;20053;-77
2022/08/14 07:08:43;;;;;;;10.98;8.88;;;;;;;17.87;77.51;99801.03;5049968;28;20474;-78
2022/08/14 07:11:10;;;;;;;14.45;9.40;;;;;;;17.85;77.85;99794.03;5067725;28;20031;-77
2022/08/14 07:13:36;;;;;;;13.40;9.20;;;;;;;17.87;77.97;99787.66;5019812;28;20402;-79
2022/08/14 07:16:02;;;;;;;14.23;8.93;;;;;;;17.88;78.21;99790.13;5068674;28;20040;-77
2022/08/14 07:18:29;;;;;;;13.45;9.73;;;;;;;17.91;78.57;99786.22;5042300;28;20067;-76
2022/08/14 07:20:57;;;;;;;11.65;8.70;;;;;;;17.94;78.57;99788.47;5031529;28;20160;-79
2022/08/14 07:23:24;;;;;;;11.48;8.70;;;;;;;17.96;78.85;99787.22;5042749;28;20046;-79
2022/08/14 07:25:53;;;;;;;11.57;9.52;;;;;;;17.97;79.04;99780.84;5016837;28;20391;-78
2022/08/14 07:28:39;;;;;;;11.27;9.70;;;;;;;18.05;79.24;99782.47;5016240;28;20107;-77
2022/08/14 07:31:08;;;;;;;16.30;9.15;;;;;;;18.13;79.33;99785.97;5061230;28;20033;-77
2022/08/14 07:33:44;;;;;;;15.60;10.25;;;;;;;18.21;79.31;99783.88;5055650;28;20029;-77
2022/08/14 07:36:12;;;;;;;11.00;9.77;;;;;;;18.33;79.45;99783.22;5051444;28;20107;-75
2022/08/14 07:38:42;;;;;;;10.25;9.07;;;;;;;18.36;79.55;99782.81;5062838;28;20051;-78
2022/08/14 07:41:10;;;;;;;13.55;8.68;;;;;;;18.49;79.56;99781.09;5042883;28;20047;-77
2022/08/14 07:43:37;;;;;;;15.13;9.02;;;;;;;18.67;79.29;99780.38;5022246;28;20040;-78
2022/08/14 07:46:04;;;;;;;11.80;8.63;;;;;;;18.83;79.08;99787.91;5032060;28;20687;-78
2022/08/14 07:48:29;;;;;;;12.25;8.80;;;;;;;18.95;78.71;99785.34;5033878;28;20099;-77
2022/08/14 07:50:55;;;;;;;13.68;8.93;;;;;;;19.08;78.55;99784.44;5051624;28;20091;-77
2022/08/14 07:53:21;;;;;;;14.30;8.70;;;;;;;19.29;78.01;99779.78;5033411;28;22011;-78
2022/08/14 07:55:48;;;;;;;13.38;8.70;;;;;;;19.40;77.61;99783.59;5035467;28;20047;-76
2022/08/14 07:58:15;;;;;;;14.27;8.00;;;;;;;19.39;77.72;99779.28;5038048;28;20045;-78
2022/08/14 08:00:42;;;;;;;12.32;8.38;;;;;;;19.55;77.37;99777.09;5049685;28;20039;-79
2022/08/14 08:03:08;;;;;;;9.75;8.00;;;;;;;19.71;76.72;99778.38;5046370;28;20089;-79
2022/08/14 08:05:36;;;;;;;13.05;7.95;;;;;;;19.79;76.47;99774.59;5042072;28;20041;-78
2022/08/14 08:08:04;;;;;;;13.38;8.55;;;;;;;19.96;75.92;99780.19;5049403;28;20388;-78
2022/08/14 08:10:31;;;;;;;10.52;8.57;;;;;;;20.09;75.42;99768.50;5040549;28;20062;-80
2022/08/14 08:13:18;;;;;;;11.23;8.40;;;;;;;20.25;74.81;99767.09;5025663;28;20040;-77
2022/08/14 08:15:46;;;;;;;11.93;7.88;;;;;;;20.29;74.56;99773.63;5043955;28;20451;-77
2022/08/14 08:18:14;;;;;;;11.05;7.50;;;;;;;20.23;74.24;99765.69;5046926;28;20029;-77
2022/08/14 08:20:49;;;;;;;11.23;8.20;;;;;;;20.24;74.29;99764.63;5054835;28;20041;-77
2022/08/14 08:23:17;;;;;;;10.77;8.23;;;;;;;20.18;74.34;99760.97;5030069;28;20033;-77
2022/08/14 08:25:47;;;;;;;9.32;7.18;;;;;;;20.21;74.10;99757.84;5064954;28;20036;-79
2022/08/14 08:28:20;;;;;;;8.20;7.32;;;;;;;20.33;73.63;99757.91;5040669;28;20036;-78
2022/08/14 08:30:50;;;;;;;10.00;7.53;;;;;;;20.48;72.68;99754.00;5028336;28;20029;-78
2022/08/14 08:33:19;;;;;;;12.65;7.30;;;;;;;20.64;72.39;99747.19;5056925;28;20115;-79
2022/08/14 08:35:46;;;;;;;10.52;8.35;;;;;;;20.80;71.66;99748.41;5043660;28;20056;-79
2022/08/14 08:38:16;;;;;;;13.15;7.72;;;;;;;20.91;71.03;99752.97;5046620;28;20032;-79
2022/08/14 08:40:47;;;;;;;13.63;7.60;;;;;;;21.01;70.62;99752.41;5040502;28;20036;-77
2022/08/14 08:43:24;;;;;;;10.48;7.65;;;;;;;21.03;69.92;99746.81;5052962;28;20063;-78
2022/08/14 08:46:05;;;;;;;9.45;7.60;;;;;;;21.06;69.99;99754.41;5045528;28;20033;-78
2022/08/14 08:48:48;;;;;;;12.43;7.80;;;;;;;21.21;69.95;99751.28;5038231;28;20096;-78
2022/08/14 08:51:22;;;;;;;9.43;7.28;;;;;;;21.35;69.70;99751.06;5039696;28;20505;-80
2022/08/14 08:53:55;;;;;;;10.23;7.67;;;;;;;21.53;69.66;99747.44;5046011;28;20119;-80
2022/08/14 08:56:34;;;;;;;11.80;7.13;;;;;;;21.65;69.35;99750.94;5063581;28;20453;-81
2022/08/14 08:59:00;;;;;;;13.68;7.93;;;;;;;21.75;69.49;99749.50;5042474;28;20029;-80
2022/08/14 09:01:30;;;;;;;13.18;8.05;;;;;;;21.84;69.07;99753.50;5016689;28;20466;-81
2022/08/14 09:04:03;;;;;;;9.40;7.20;;;;;;;21.91;68.48;99756.91;5041171;28;20526;-79
2022/08/14 09:06:28;;;;;;;9.18;7.35;;;;;;;22.00;68.61;99751.94;5023176;28;20061;-79
2022/08/14 09:08:55;;;;;;;10.27;8.20;;;;;;;22.05;68.26;99743.16;5032136;28;20040;-79
2022/08/14 09:11:23;;;;;;;13.43;7.85;;;;;;;22.02;68.59;99749.03;5029376;28;20047;-80
2022/08/14 09:13:53;;;;;;;8.52;7.15;;;;;;;22.11;68.65;99733.31;5021499;28;20072;-79
2022/08/14 09:16:24;;;;;;;10.02;7.82;;;;;;;22.18;68.36;99737.53;5035108;28;20065;-79
2022/08/14 09:18:50;;;;;;;15.32;7.10;;;;;;;22.21;68.56;99727.31;5031331;28;20052;-79
2022/08/14 09:21:17;;;;;;;11.93;7.63;;;;;;;22.35;68.13;99738.59;5033026;28;20040;-79
2022/08/14 09:23:43;;;;;;;9.85;6.90;;;;;;;22.37;68.25;99740.03;5050798;28;20044;-79
2022/08/14 09:26:08;;;;;;;12.57;7.68;;;;;;;22.42;67.93;99732.00;5053445;28;20043;-78
2022/08/14 09:28:34;;;;;;;8.90;7.20;;;;;;;22.48;67.74;99737.50;5055329;28;20029;-78
2022/08/14 09:31:00;;;;;;;10.88;7.47;;;;;;;22.55;67.59;99740.88;5044846;28;20032;-78
2022/08/14 09:33:49;;;;;;;11.23;7.18;;;;;;;22.63;67.56;99737.81;5033743;28;20396;-80
2022/08/14 09:36:57;;;;;;;12.90;7.25;;;;;;;22.74;67.06;99738.78;5045012;28;20729;-79
2022/08/14 09:39:46;;;;;;;18.33;7.35;;;;;;;22.96;66.46;99732.69;5027768;28;20051;-79
2022/08/14 09:42:18;;;;;;;10.48;7.53;;;;;;;23.15;66.13;99735.97;5040001;28;20048;-81
2022/08/14 09:45:05;;;;;;;8.93;6.43;;;;;;;23.22;65.64;99738.47;5041088;28;20496;-80
2022/08/14 09:47:49;;;;;;;10.50;7.18;;;;;;;23.35;64.96;99740.03;5039327;28;20039;-79
2022/08/14 09:50:23;;;;;;;9.82;6.88;;;;;;;23.49;64.78;99739.72;5039814;28;20029;-80
2022/08/14 09:52:55;;;;;;;13.70;6.60;;;;;;;23.54;64.30;99735.19;5044096;28;20040;-79
2022/08/14 09:55:22;;;;;;;12.73;6.50;;;;;;;23.62;63.63;99735.84;5050670;28;20029;-80
2022/08/14 09:57:51;;;;;;;8.68;6.38;;;;;;;23.66;63.46;99729.72;4985837;28;20063;-80
2022/08/14 10:00:18;;;;;;;9.80;6.35;;;;;;;23.74;63.14;99723.06;5024142;28;20041;-79
2022/08/14 10:02:52;;;;;;;9.05;6.18;;;;;;;23.80;62.82;99723.94;5028897;28;20368;-79
2022/08/14 10:05:32;;;;;;;16.20;7.13;;;;;;;23.89;61.99;99721.63;5058397;28;20116;-79
2022/08/14 10:07:59;;;;;;;7.18;5.95;;;;;;;23.97;61.89;99710.34;5043842;28;20083;-80
2022/08/14 10:10:38;;;;;;;10.27;6.65;;;;;;;23.97;61.62;99707.66;5039344;28;20034;-79
2022/08/14 10:13:06;;;;;;;9.07;6.00;;;;;;;24.02;61.22;99705.03;5062437;28;20025;-79
2022/08/14 10:15:36;;;;;;;13.15;6.40;;;;;;;24.07;61.22;99717.75;5045002;28;20044;-80
2022/08/14 10:18:13;;;;;;;6.95;5.85;;;;;;;24.13;61.33;99705.13;5020969;28;20033;-79
2022/08/14 10:20:51;;;;;;;10.90;6.35;;;;;;;24.22;60.85;99703.66;5039641;28;20041;-81
2022/08/14 10:23:19;;;;;;;11.98;7.20;;;;;;;24.26;60.87;99706.66;5053900;28;20072;-80
2022/08/14 10:25:52;;;;;;;9.98;6.82;;;;;;;24.25;60.80;99702.31;5023096;28;20030;-80
2022/08/14 10:28:21;;;;;;;12.70;5.95;;;;;;;24.30;60.94;99698.88;5028624;28;20028;-79
2022/08/14 10:30:52;;;;;;;10.68;5.68;;;;;;;24.36;61.18;99695.97;5021835;28;20071;-79
2022/08/14 10:33:31;;;;;;;10.75;5.40;;;;;;;24.45;61.05;99700.91;5041619;28;20040;-80
2022/08/14 10:35:59;;;;;;;6.72;5.53;;;;;;;24.58;61.25;99691.53;5035943;28;20044;-80
2022/08/14 10:38:31;;;;;;;11.32;6.53;;;;;;;24.63;60.83;99691.59;5027707;28;20043;-80
2022/08/14 10:41:14;;;;;;;9.75;6.28;;;;;;;24.56;61.12;99689.09;5046114;28;20036;-79
2022/08/14 10:43:44;;;;;;;11.27;5.28;;;;;;;24.65;61.39;99687.56;5045601;28;20120;-79
2022/08/14 10:46:15;;;;;;;17.15;5.53;;;;;;;24.81;60.91;99687.69;5047532;28;20170;-80
2022/08/14 10:48:54;;;;;;;10.23;5.65;;;;;;;24.94;60.86;99680.25;5045572;28;20231;-79
2022/08/14 10:51:24;;;;;;;17.73;5.72;;;;;;;25.05;60.44;99668.44;5058675;28;20036;-78
2022/08/14 10:53:54;;;;;;;10.80;4.97;;;;;;;25.19;60.21;99670.66;5042037;28;20029;-78
2022/08/14 10:56:32;;;;;;;10.32;5.97;;;;;;;25.25;59.85;99672.31;5032883;28;20033;-79
2022/08/14 10:59:07;;;;;;;9.38;5.95;;;;;;;25.32;59.79;99666.69;5045037;28;20055;-79
2022/08/14 11:01:37;;;;;;;6.07;5.03;;;;;;;25.40;59.88;99663.50;5035022;28;20024;-80
2022/08/14 11:04:03;;;;;;;7.15;5.35;;;;;;;25.47;59.45;99661.34;5060993;28;20058;-79
2022/08/14 11:06:32;;;;;;;7.63;5.32;;;;;;;25.54;59.15;99650.28;5031751;28;20203;-81
2022/08/14 11:08:58;;;;;;;8.23;5.60;;;;;;;25.62;59.36;99641.69;5020788;28;20096;-81
2022/08/14 11:11:28;;;;;;;9.38;4.47;;;;;;;25.70;58.88;99648.50;5036474;28;20032;-79
2022/08/14 11:13:56;;;;;;;6.72;4.57;;;;;;;25.68;58.79;99649.81;5053554;28;20063;-80
2022/08/14 11:16:23;;;;;;;9.00;3.85;;;;;;;25.74;58.28;99640.63;5028034;28;20382;-80
2022/08/14 11:18:49;;;;;;;6.80;4.18;;;;;;;25.82;58.02;99647.41;5060494;28;20029;-80
2022/08/14 11:21:21;;;;;;;7.47;4.65;;;;;;;25.88;57.89;99633.63;5035201;28;20021;-78
2022/08/14 11:23:48;;;;;;;14.68;4.38;;;;;;;25.89;57.99;99629.88;5048189;28;20101;-81
2022/08/14 11:26:19;;;;;;;5.95;4.57;;;;;;;25.89;58.06;99627.16;5025465;28;20033;-77
2022/08/14 11:28:48;;;;;;;9.07;4.35;;;;;;;25.86;58.45;99616.88;5050680;28;20040;-81
2022/08/14 11:31:16;;;;;;;9.68;4.35;;;;;;;25.77;58.93;99618.44;5043739;28;20375;-78
2022/08/14 11:33:46;;;;;;;8.60;5.10;;;;;;;25.72;59.14;99611.13;5041892;28;20033;-79
2022/08/14 11:36:12;;;;;;;8.15;5.53;;;;;;;25.70;59.17;99621.44;5042778;28;20037;-83
2022/08/14 11:38:41;;;;;;;6.75;4.75;;;;;;;25.77;59.30;99613.84;5029962;28;20046;-77
2022/08/14 11:41:08;;;;;;;6.07;4.47;;;;;;;25.91;59.38;99604.41;5051055;28;20032;-82
2022/08/14 11:43:42;;;;;;;7.45;4.70;;;;;;;25.98;59.17;99602.25;5035170;28;20537;-79
2022/08/14 11:46:12;;;;;;;11.57;4.50;;;;;;;26.02;59.14;99597.94;5030633;28;20048;-79
2022/08/14 11:48:51;;;;;;;8.70;5.20;;;;;;;26.00;58.75;99595.50;5027769;28;20021;-77